Time;durP1;ratioP1;P1;durP2;ratioP2;P2;SDS_P1;SDS_P2;PMS_P1;PMS_P2;Temp;Humidity;BMP_temperature;BMP_pressure;BME280_temperature;BME280_humidity;BME280_pressure;Samples;Min_cycle;Max_cycle;Signal;HPM_P1;HPM_P2
2023/10/08 00:03:11;;;;;;;18.42;10.57;;;;;;;10.33;100.00;97641.56;5016383;28;20045;-67
2023/10/08 00:05:37;;;;;;;14.98;9.70;;;;;;;10.28;100.00;97639.00;5005648;28;20565;-67
2023/10/08 00:08:04;;;;;;;13.77;10.00;;;;;;;10.28;100.00;97635.47;5018880;28;20041;-69
2023/10/08 00:10:39;;;;;;;14.23;9.95;;;;;;;10.30;100.00;97638.69;5021124;28;20065;-67
2023/10/08 00:13:09;;;;;;;15.77;9.80;;;;;;;10.30;100.00;97642.19;5016730;28;20042;-68
2023/10/08 00:15:41;;;;;;;18.17;10.15;;;;;;;10.29;100.00;97640.59;5022263;28;20049;-68
2023/10/08 00:18:07;;;;;;;16.67;10.05;;;;;;;10.26;100.00;97644.03;5016208;28;20037;-67
2023/10/08 00:20:42;;;;;;;15.20;10.60;;;;;;;10.25;100.00;97639.69;5028546;28;20037;-68
2023/10/08 00:23:09;;;;;;;21.10;11.27;;;;;;;10.24;100.00;97643.56;5020620;28;20047;-66
2023/10/08 00:25:40;;;;;;;15.10;10.73;;;;;;;10.24;100.00;97643.56;5018520;28;20068;-67
2023/10/08 00:28:10;;;;;;;14.52;9.90;;;;;;;10.28;100.00;97644.50;5008393;28;20037;-66
2023/10/08 00:30:39;;;;;;;14.10;9.68;;;;;;;10.30;100.00;97649.63;5021473;28;20484;-66
2023/10/08 00:33:04;;;;;;;14.63;9.23;;;;;;;10.29;100.00;97645.28;4997867;28;20045;-69
2023/10/08 00:35:30;;;;;;;17.88;10.13;;;;;;;10.20;100.00;97641.84;5006306;28;20042;-66
2023/10/08 00:38:00;;;;;;;15.52;9.95;;;;;;;10.05;100.00;97646.06;5002615;28;20145;-67
2023/10/08 00:40:35;;;;;;;;;;;;;;;10.02;100.00;97641.25;5015471;28;20045;-67
2023/10/08 00:43:03;;;;;;;14.85;8.82;;;;;;;9.98;100.00;97643.88;5004870;28;19921;-67
2023/10/08 00:45:30;;;;;;;17.23;9.93;;;;;;;10.02;100.00;97644.00;5007118;28;20127;-67
2023/10/08 00:47:57;;;;;;;18.63;10.07;;;;;;;10.04;100.00;97644.44;5010057;28;20177;-68
2023/10/08 00:50:31;;;;;;;13.05;9.23;;;;;;;10.03;100.00;97643.66;4999657;28;20050;-68
2023/10/08 00:53:00;;;;;;;15.05;9.32;;;;;;;10.02;100.00;97639.31;5016066;28;20045;-67
2023/10/08 00:55:29;;;;;;;14.55;9.50;;;;;;;9.90;100.00;97637.38;4985329;28;20072;-70
2023/10/08 00:57:58;;;;;;;16.60;9.90;;;;;;;9.85;100.00;97639.50;5000401;28;20048;-67
2023/10/08 01:00:37;;;;;;;14.30;9.77;;;;;;;9.80;100.00;97631.53;5011280;28;20612;-68
2023/10/08 01:03:14;;;;;;;13.55;9.43;;;;;;;9.73;100.00;97626.59;4994378;28;20392;-70
2023/10/08 01:05:46;;;;;;;13.43;9.88;;;;;;;9.56;100.00;97625.66;5005547;28;20034;-67
2023/10/08 01:08:17;;;;;;;16.38;9.90;;;;;;;9.55;100.00;97629.50;5000694;28;20064;-66
2023/10/08 01:10:46;;;;;;;14.38;8.48;;;;;;;9.60;100.00;97630.44;4996911;28;20519;-67
2023/10/08 01:13:20;;;;;;;13.77;9.33;;;;;;;9.61;100.00;97626.56;4992627;28;20050;-67
2023/10/08 01:15:49;;;;;;;14.90;9.00;;;;;;;9.64;100.00;97628.63;5005967;28;20056;-67
2023/10/08 01:18:17;;;;;;;13.63;8.45;;;;;;;9.65;100.00;97624.75;4996079;28;20034;-66
2023/10/08 01:20:51;;;;;;;12.90;8.88;;;;;;;9.65;100.00;97632.97;5026609;28;20045;-67
2023/10/08 01:23:20;;;;;;;18.67;9.32;;;;;;;9.65;100.00;97625.56;4996181;28;20395;-66
2023/10/08 01:28:31;;;;;;;13.38;8.77;;;;;;;9.59;100.00;97620.66;5014712;28;20057;-68
2023/10/08 01:31:00;;;;;;;13.27;9.73;;;;;;;9.62;100.00;97618.03;4991506;28;20133;-69
2023/10/08 01:33:37;;;;;;;15.93;9.37;;;;;;;9.56;100.00;97611.97;5017073;28;20562;-66
2023/10/08 01:36:04;;;;;;;17.27;9.38;;;;;;;9.52;100.00;97613.78;5022270;28;20045;-69
2023/10/08 01:38:33;;;;;;;15.30;9.90;;;;;;;9.55;100.00;97618.56;5023024;28;20492;-66
2023/10/08 01:41:03;;;;;;;15.32;9.75;;;;;;;9.59;100.00;97612.44;5017746;28;20046;-67
2023/10/08 01:43:29;;;;;;;14.75;9.60;;;;;;;9.63;100.00;97610.63;5015752;28;20045;-69
2023/10/08 01:45:55;;;;;;;15.77;8.82;;;;;;;9.55;100.00;97615.06;5023516;28;20065;-69
2023/10/08 01:48:27;;;;;;;16.77;8.32;;;;;;;9.48;100.00;97609.34;5018708;28;20407;-69
2023/10/08 01:51:01;;;;;;;11.70;8.27;;;;;;;9.41;100.00;97609.06;5009237;28;20077;-68
2023/10/08 01:53:31;;;;;;;11.75;8.68;;;;;;;9.34;100.00;97604.16;5020122;28;20042;-68
2023/10/08 01:55:58;;;;;;;13.45;8.80;;;;;;;9.33;100.00;97603.34;5006107;28;20097;-68
2023/10/08 01:58:23;;;;;;;13.52;8.80;;;;;;;9.38;100.00;97605.06;4996776;28;20121;-69
2023/10/08 02:00:51;;;;;;;13.35;9.15;;;;;;;9.24;100.00;97605.38;5004993;28;20124;-68
2023/10/08 02:03:18;;;;;;;16.42;9.93;;;;;;;8.85;100.00;97603.94;5018842;28;20041;-67
2023/10/08 02:05:46;;;;;;;15.38;10.13;;;;;;;8.52;100.00;97610.91;5024263;28;20038;-68
2023/10/08 02:08:13;;;;;;;16.08;11.00;;;;;;;8.36;100.00;97599.72;5019580;28;20041;-67
2023/10/08 02:10:43;;;;;;;16.35;11.05;;;;;;;8.31;100.00;97599.91;5022766;28;20037;-67
2023/10/08 02:13:10;;;;;;;19.00;11.13;;;;;;;8.35;100.00;97598.09;5011016;28;20104;-68
2023/10/08 02:15:36;;;;;;;15.27;10.88;;;;;;;8.42;100.00;97598.41;5020153;28;20046;-69
2023/10/08 02:18:03;;;;;;;16.45;10.85;;;;;;;8.63;100.00;97602.31;5000485;28;20042;-69
2023/10/08 02:20:30;;;;;;;14.90;10.13;;;;;;;8.75;100.00;97597.75;5017213;28;20122;-67
2023/10/08 02:22:55;;;;;;;14.55;9.32;;;;;;;8.82;100.00;97605.38;5007318;28;20049;-69
2023/10/08 02:25:22;;;;;;;17.75;9.63;;;;;;;8.83;100.00;97609.72;5005262;28;20029;-67
2023/10/08 02:27:48;;;;;;;16.67;9.85;;;;;;;8.86;100.00;97597.31;5024341;28;20056;-68
2023/10/08 02:30:14;;;;;;;16.05;8.25;;;;;;;8.85;100.00;97602.00;5011343;28;20043;-68
2023/10/08 02:32:42;;;;;;;15.85;8.50;;;;;;;8.85;100.00;97601.19;5011652;28;20041;-68
2023/10/08 02:35:11;;;;;;;13.27;7.88;;;;;;;8.85;100.00;97598.47;5002287;28;20124;-69
2023/10/08 02:37:40;;;;;;;11.80;7.97;;;;;;;8.84;100.00;97603.13;5023415;28;20045;-67
2023/10/08 02:40:28;;;;;;;11.30;7.43;;;;;;;8.84;100.00;97602.31;5001986;28;20373;-67
2023/10/08 02:42:58;;;;;;;13.85;7.93;;;;;;;8.87;100.00;97598.94;5014530;28;20060;-69
2023/10/08 02:45:27;;;;;;;13.50;8.32;;;;;;;8.88;100.00;97601.34;4996255;28;20772;-67
2023/10/08 02:47:54;;;;;;;13.57;8.70;;;;;;;8.91;100.00;97602.59;4999006;28;20122;-69
2023/10/08 02:50:22;;;;;;;12.18;8.45;;;;;;;8.92;100.00;97605.00;5009965;28;20045;-67
2023/10/08 02:52:50;;;;;;;13.20;8.98;;;;;;;8.85;100.00;97593.78;5011194;28;20045;-68
2023/10/08 02:55:34;;;;;;;10.65;7.85;;;;;;;8.74;100.00;97590.66;5010472;28;20109;-69
2023/10/08 02:58:02;;;;;;;11.52;7.10;;;;;;;8.79;100.00;97590.47;5019257;28;20045;-69
2023/10/08 03:00:29;;;;;;;11.35;8.30;;;;;;;8.85;100.00;97585.59;4991377;28;20047;-68
2023/10/08 03:02:57;;;;;;;13.60;9.02;;;;;;;8.86;100.00;97583.66;5015616;28;20584;-69
2023/10/08 03:05:23;;;;;;;13.25;8.75;;;;;;;8.91;100.00;97591.66;5005356;28;20460;-67
2023/10/08 03:07:51;;;;;;;10.77;7.72;;;;;;;8.89;100.00;97583.00;4998618;28;20052;-68
2023/10/08 03:10:19;;;;;;;10.63;7.72;;;;;;;8.85;100.00;97587.53;5010919;28;20042;-67
2023/10/08 03:12:46;;;;;;;13.70;7.03;;;;;;;8.77;100.00;97592.72;4984527;28;20050;-68
2023/10/08 03:15:14;;;;;;;10.75;6.93;;;;;;;8.76;100.00;97591.13;5014769;28;20034;-68
2023/10/08 03:17:54;;;;;;;14.90;8.40;;;;;;;8.66;100.00;97586.06;5002452;28;20517;-68
2023/10/08 03:23:12;;;;;;;11.27;7.85;;;;;;;8.58;100.00;97587.72;5002821;28;20042;-69
2023/10/08 03:25:45;;;;;;;15.48;10.02;;;;;;;8.60;100.00;97588.19;5010438;28;20112;-68
2023/10/08 03:28:13;;;;;;;14.02;6.85;;;;;;;8.64;100.00;97582.06;4993847;28;20519;-67
2023/10/08 03:30:48;;;;;;;12.10;7.60;;;;;;;8.62;100.00;97576.94;5004065;28;20042;-67
2023/10/08 03:33:22;;;;;;;9.52;6.88;;;;;;;8.60;100.00;97584.66;4995670;28;20040;-67
2023/10/08 03:35:52;;;;;;;13.27;7.00;;;;;;;8.58;100.00;97581.47;5006214;28;20045;-68
2023/10/08 03:38:28;;;;;;;11.02;7.13;;;;;;;8.58;100.00;97579.53;5009076;28;20042;-67
2023/10/08 03:41:06;;;;;;;13.48;7.07;;;;;;;8.52;100.00;97580.88;5008728;28;20633;-66
2023/10/08 03:43:42;;;;;;;12.00;7.55;;;;;;;8.56;100.00;97581.00;5006822;28;20449;-66
2023/10/08 03:46:14;;;;;;;11.32;7.60;;;;;;;8.60;100.00;97585.44;4989796;28;20050;-68
2023/10/08 03:48:44;;;;;;;11.23;7.10;;;;;;;8.59;100.00;97581.13;5021103;28;20069;-67
2023/10/08 03:51:11;;;;;;;13.40;6.90;;;;;;;8.61;100.00;97586.28;5012241;28;20046;-65
2023/10/08 03:54:07;;;;;;;11.70;7.28;;;;;;;8.59;100.00;97583.06;5016395;28;20400;-67
2023/10/08 03:56:36;;;;;;;11.43;7.43;;;;;;;8.54;100.00;97584.06;5011036;28;20049;-66
2023/10/08 03:59:12;;;;;;;10.25;7.13;;;;;;;8.54;100.00;97586.78;5013050;28;20125;-67
2023/10/08 04:01:42;;;;;;;12.05;7.88;;;;;;;8.58;100.00;97574.06;5022342;28;20057;-66
2023/10/08 04:04:12;;;;;;;12.70;8.70;;;;;;;8.60;100.00;97574.53;5016524;28;20037;-67
2023/10/08 04:06:38;;;;;;;11.95;8.18;;;;;;;8.62;100.00;97576.94;5022125;28;20045;-66
2023/10/08 04:14:21;;;;;;;11.65;7.90;;;;;;;8.58;100.00;97578.72;5008477;28;20129;-66
2023/10/08 04:16:51;;;;;;;13.63;7.68;;;;;;;8.55;100.00;97574.75;5021392;28;20389;-66
2023/10/08 04:19:21;;;;;;;13.70;8.05;;;;;;;8.50;100.00;97572.22;5019753;28;20037;-66
2023/10/08 04:21:53;;;;;;;11.07;6.93;;;;;;;8.46;100.00;97573.19;5019965;28;20050;-66
2023/10/08 04:24:34;;;;;;;11.20;7.57;;;;;;;8.41;100.00;97576.91;5008429;28;20041;-66
2023/10/08 04:27:09;;;;;;;12.73;7.57;;;;;;;8.42;100.00;97579.31;5004675;28;20060;-66
2023/10/08 04:29:37;;;;;;;11.30;7.43;;;;;;;8.41;100.00;97585.88;5021461;28;20047;-66
2023/10/08 04:32:24;;;;;;;11.27;8.10;;;;;;;8.41;100.00;97576.91;5015394;28;20419;-68
2023/10/08 04:34:50;;;;;;;11.20;7.57;;;;;;;8.38;100.00;97578.34;5005456;28;20043;-67
2023/10/08 04:37:20;;;;;;;12.63;7.00;;;;;;;8.37;100.00;97573.22;5009258;28;20034;-67
2023/10/08 04:39:47;;;;;;;12.10;7.43;;;;;;;8.36;100.00;97572.41;5004008;28;20130;-67
2023/10/08 04:42:14;;;;;;;12.32;7.22;;;;;;;8.37;100.00;97567.75;5016090;28;20100;-67
2023/10/08 04:44:40;;;;;;;10.32;7.00;;;;;;;8.35;100.00;97564.56;5022568;28;20049;-67
2023/10/08 04:47:08;;;;;;;12.90;7.88;;;;;;;8.39;100.00;97560.03;4998436;28;20385;-68
2023/10/08 04:49:34;;;;;;;9.23;7.22;;;;;;;8.37;100.00;97563.13;5009247;28;20049;-68
2023/10/08 04:52:13;;;;;;;9.02;6.30;;;;;;;8.27;100.00;97568.16;5021081;28;20056;-67
2023/10/08 04:54:40;;;;;;;11.70;8.05;;;;;;;7.99;100.00;97560.41;5023469;28;20041;-67
2023/10/08 04:57:07;;;;;;;11.65;7.78;;;;;;;7.82;100.00;97556.66;4986415;28;20042;-67
2023/10/08 04:59:33;;;;;;;11.13;6.70;;;;;;;7.84;100.00;97561.78;5008633;28;20045;-67
2023/10/08 05:02:26;;;;;;;11.02;6.25;;;;;;;7.95;100.00;97563.00;5004867;28;20038;-68
2023/10/08 05:07:39;;;;;;;11.18;7.32;;;;;;;7.93;100.00;97570.72;5012399;28;20045;-67
2023/10/08 05:12:37;;;;;;;12.23;6.60;;;;;;;7.66;100.00;97575.47;5018265;28;20444;-67
2023/10/08 05:23:20;;;;;;;9.82;6.82;;;;;;;7.64;100.00;97569.53;5003451;28;20046;-67
2023/10/08 05:28:25;;;;;;;13.75;7.07;;;;;;;7.89;100.00;97563.53;5005756;28;20638;-67
2023/10/08 05:36:17;;;;;;;13.57;7.90;;;;;;;8.04;100.00;97574.66;5014245;28;20041;-67
2023/10/08 05:38:51;;;;;;;11.73;6.75;;;;;;;8.07;100.00;97573.22;5000308;28;20069;-65
2023/10/08 05:41:30;;;;;;;8.82;6.78;;;;;;;7.99;100.00;97574.06;5008018;28;20141;-67
2023/10/08 05:44:13;;;;;;;;;;;;;;;8.09;100.00;97570.97;5021145;28;20073;-67
2023/10/08 05:46:46;;;;;;;13.00;7.22;;;;;;;8.22;100.00;97569.91;5000488;28;19921;-68
2023/10/08 06:15:47;;;;;;;11.40;7.13;;;;;;;9.60;100.00;97592.13;4988541;28;20649;-66
2023/10/08 06:18:14;;;;;;;14.65;7.35;;;;;;;9.96;100.00;97594.16;5017903;28;20042;-66
2023/10/08 06:20:44;;;;;;;12.05;6.15;;;;;;;10.32;100.00;97593.41;5029186;28;20079;-65
2023/10/08 06:23:18;;;;;;;10.35;5.93;;;;;;;10.75;100.00;97598.59;5018589;28;20467;-67
2023/10/08 06:25:46;;;;;;;10.48;6.03;;;;;;;11.16;100.00;97599.38;5016932;28;20033;-66
2023/10/08 06:28:19;;;;;;;9.50;6.18;;;;;;;11.82;100.00;97609.81;5018275;28;20115;-67
2023/10/08 06:30:44;;;;;;;9.93;6.15;;;;;;;12.44;100.00;97606.66;5022923;28;20041;-67
2023/10/08 06:33:10;;;;;;;13.50;6.78;;;;;;;13.12;100.00;97619.16;5006198;28;20041;-66
2023/10/08 06:35:36;;;;;;;11.57;6.03;;;;;;;13.78;100.00;97619.31;5017687;28;20038;-67
2023/10/08 06:38:07;;;;;;;10.73;6.43;;;;;;;14.34;100.00;97626.16;5020500;28;20180;-68
2023/10/08 06:43:14;;;;;;;11.50;6.63;;;;;;;15.28;100.00;97620.84;5021832;28;20044;-68
2023/10/08 06:45:44;;;;;;;11.30;6.03;;;;;;;15.75;100.00;97634.41;5022509;28;20037;-67
2023/10/08 06:48:17;;;;;;;7.78;5.55;;;;;;;16.14;95.04;97634.81;5002425;28;20518;-67
2023/10/08 06:50:44;;;;;;;9.98;5.70;;;;;;;16.40;93.57;97644.13;4994705;28;20124;-67
2023/10/08 06:53:13;;;;;;;15.20;6.43;;;;;;;15.77;94.27;97635.66;5018508;28;20111;-67
2023/10/08 06:55:40;;;;;;;9.77;6.33;;;;;;;15.00;100.00;97637.81;5011067;28;20089;-67
2023/10/08 06:58:07;;;;;;;10.65;6.03;;;;;;;15.04;100.00;97637.88;5014120;28;20400;-67
2023/10/08 07:00:38;;;;;;;9.48;6.38;;;;;;;15.29;100.00;97633.47;5017384;28;20109;-67
2023/10/08 07:03:04;;;;;;;9.13;6.13;;;;;;;14.88;100.00;97633.31;5019355;28;20045;-68
2023/10/08 07:05:34;;;;;;;17.30;7.53;;;;;;;14.95;100.00;97635.38;4995018;28;20061;-68
2023/10/08 07:07:59;;;;;;;;;;;;;;;15.27;100.00;97646.84;5009132;28;20042;-68
2023/10/08 07:10:24;;;;;;;9.93;5.93;;;;;;;16.10;100.00;97639.53;5012183;28;20016;-67
2023/10/08 07:12:52;;;;;;;10.30;7.43;;;;;;;16.46;100.00;97645.38;5009731;28;20284;-67
2023/10/08 07:15:23;;;;;;;11.00;6.93;;;;;;;16.53;96.99;97650.16;4998079;28;20031;-67
2023/10/08 07:17:51;;;;;;;15.77;7.28;;;;;;;17.08;94.96;97655.69;5004266;28;20153;-68
2023/10/08 07:20:17;;;;;;;12.45;7.22;;;;;;;17.54;92.14;97655.16;5007231;28;20512;-68
2023/10/08 07:22:43;;;;;;;12.95;6.32;;;;;;;18.49;86.43;97657.75;5018832;28;20057;-66
2023/10/08 07:25:09;;;;;;;12.32;7.03;;;;;;;19.45;75.48;97675.47;4994505;28;20038;-67
2023/10/08 07:27:37;;;;;;;14.32;7.22;;;;;;;19.60;76.98;97672.66;5018902;28;20042;-66
2023/10/08 07:30:10;;;;;;;11.07;6.97;;;;;;;19.69;76.83;97675.78;5003263;28;20049;-67
2023/10/08 07:32:39;;;;;;;11.35;7.28;;;;;;;19.75;77.25;97676.19;5002376;28;20039;-67
2023/10/08 07:37:47;;;;;;;11.95;7.80;;;;;;;19.99;74.33;97685.63;4990409;28;20567;-67
2023/10/08 07:40:15;;;;;;;14.68;7.53;;;;;;;20.72;73.64;97700.66;5015568;28;20111;-67
2023/10/08 07:42:41;;;;;;;12.75;7.70;;;;;;;21.38;71.31;97694.06;4987186;28;20052;-68
2023/10/08 07:45:07;;;;;;;12.27;7.75;;;;;;;21.28;70.98;97706.13;4998444;28;20038;-68
2023/10/08 07:47:32;;;;;;;15.68;9.40;;;;;;;21.59;67.93;97701.44;5016762;28;20049;-68
2023/10/08 07:50:01;;;;;;;13.38;8.07;;;;;;;22.15;65.57;97713.06;5005437;28;20050;-68
2023/10/08 07:52:26;;;;;;;15.37;8.80;;;;;;;20.95;70.52;97702.84;5002133;28;20473;-67
2023/10/08 07:54:53;;;;;;;16.92;8.60;;;;;;;19.70;82.13;97696.03;4994983;28;20053;-67
2023/10/08 07:57:26;;;;;;;13.88;8.20;;;;;;;19.81;81.45;97694.03;4999117;28;20037;-67
2023/10/08 07:59:54;;;;;;;14.65;8.35;;;;;;;19.57;86.67;97698.47;5017277;28;20048;-67
2023/10/08 08:02:23;;;;;;;13.25;8.02;;;;;;;20.45;80.27;97695.66;5001188;28;20041;-67
2023/10/08 08:04:52;;;;;;;13.85;9.43;;;;;;;20.53;78.75;97699.19;5022484;28;20037;-68
2023/10/08 08:07:21;;;;;;;13.32;9.18;;;;;;;20.37;79.24;97694.91;4998490;28;20073;-67
2023/10/08 08:09:50;;;;;;;13.38;7.97;;;;;;;21.26;73.98;97706.53;4987836;28;20554;-67
2023/10/08 08:12:21;;;;;;;14.65;8.02;;;;;;;23.02;66.57;97704.19;4993524;28;20511;-67
2023/10/08 08:14:47;;;;;;;14.98;9.65;;;;;;;22.36;64.98;97707.63;4996739;28;20057;-67
2023/10/08 08:17:14;;;;;;;14.63;9.30;;;;;;;21.17;71.31;97709.78;5003298;28;20045;-66
2023/10/08 08:19:41;;;;;;;14.95;9.20;;;;;;;20.88;74.52;97716.84;5015207;28;20073;-66
2023/10/08 08:22:07;;;;;;;13.60;9.38;;;;;;;21.39;72.91;97707.59;4995359;28;20038;-68
2023/10/08 08:24:35;;;;;;;17.73;8.50;;;;;;;22.87;63.57;97705.66;5000682;28;20191;-67
2023/10/08 08:27:08;;;;;;;14.73;8.93;;;;;;;22.82;62.24;97720.88;5009994;28;20400;-68
2023/10/08 08:29:44;;;;;;;12.57;8.27;;;;;;;23.46;61.06;97726.59;5000705;28;20288;-68
2023/10/08 08:32:12;;;;;;;13.60;7.93;;;;;;;24.10;57.57;97720.97;4999305;28;20041;-68
2023/10/08 08:34:43;;;;;;;14.43;8.10;;;;;;;23.91;57.78;97722.56;5015063;28;20052;-67
2023/10/08 08:37:09;;;;;;;11.45;7.45;;;;;;;25.24;53.79;97730.72;4990694;28;20041;-68
2023/10/08 08:39:36;;;;;;;16.52;8.45;;;;;;;24.86;53.38;97722.88;5006050;28;20037;-67
2023/10/08 08:42:04;;;;;;;13.60;9.00;;;;;;;25.77;51.59;97722.91;5012622;28;20518;-69
2023/10/08 08:44:31;;;;;;;14.45;8.82;;;;;;;25.93;49.59;97728.50;5010990;28;20071;-67
2023/10/08 08:47:04;;;;;;;14.38;7.43;;;;;;;25.99;47.23;97731.53;5002080;28;20497;-68
2023/10/08 08:49:33;;;;;;;15.50;8.15;;;;;;;25.65;47.54;97734.88;4993723;28;20054;-67
2023/10/08 08:52:00;;;;;;;;;;;;;;;24.86;50.06;97726.44;5009900;28;20111;-67
2023/10/08 08:54:30;;;;;;;11.88;6.55;;;;;;;24.46;49.43;97722.97;4991406;28;19916;-67
2023/10/08 08:57:04;;;;;;;12.60;7.05;;;;;;;25.28;49.00;97723.03;4988402;28;20178;-67
2023/10/08 08:59:30;;;;;;;15.05;7.78;;;;;;;25.06;49.75;97723.53;4996444;28;20077;-67
2023/10/08 09:01:58;;;;;;;15.60;7.75;;;;;;;24.56;52.25;97711.56;5001603;28;20041;-67
2023/10/08 09:04:30;;;;;;;11.50;7.32;;;;;;;25.01;51.36;97721.28;4988638;28;20143;-66
2023/10/08 09:06:57;;;;;;;14.43;7.45;;;;;;;24.99;52.00;97724.53;5002896;28;20070;-67
2023/10/08 09:09:30;;;;;;;14.15;7.25;;;;;;;25.38;52.02;97730.38;4982780;28;20509;-69
2023/10/08 09:11:57;;;;;;;14.73;8.30;;;;;;;25.28;53.69;97723.03;4995449;28;20065;-68
2023/10/08 09:14:25;;;;;;;13.10;7.97;;;;;;;25.15;53.33;97726.50;5012767;28;20128;-68
2023/10/08 09:16:54;;;;;;;14.38;7.93;;;;;;;24.76;56.20;97731.09;4996672;28;20054;-67
2023/10/08 09:19:21;;;;;;;14.85;8.93;;;;;;;24.53;57.61;97720.81;5007288;28;20034;-67
2023/10/08 09:22:03;;;;;;;16.02;8.60;;;;;;;23.88;58.35;97721.41;5013338;28;20074;-67
2023/10/08 09:24:28;;;;;;;17.50;10.68;;;;;;;24.74;56.36;97725.16;5007257;28;20520;-67
2023/10/08 09:26:55;;;;;;;16.52;8.77;;;;;;;24.69;55.48;97728.47;5020682;28;20135;-67
2023/10/08 09:29:24;;;;;;;15.82;8.00;;;;;;;25.28;55.02;97729.44;5016211;28;20079;-67
2023/10/08 09:31:56;;;;;;;13.93;8.40;;;;;;;24.64;56.11;97731.78;5019545;28;20041;-67
2023/10/08 09:34:26;;;;;;;15.48;8.68;;;;;;;24.82;55.82;97722.19;5012854;28;23086;-67
2023/10/08 09:36:53;;;;;;;17.75;8.77;;;;;;;24.69;56.32;97720.06;5021427;28;20046;-67
2023/10/08 09:39:26;;;;;;;14.07;7.60;;;;;;;24.72;57.51;97719.19;5031836;28;20038;-68
2023/10/08 09:41:58;;;;;;;22.92;13.98;;;;;;;25.11;56.35;97719.44;5018311;28;20041;-68
2023/10/08 09:44:25;;;;;;;15.25;8.48;;;;;;;25.05;56.54;97715.56;5011996;28;20193;-69
2023/10/08 09:47:04;;;;;;;14.27;8.43;;;;;;;24.87;57.00;97708.44;5019142;28;20098;-68
2023/10/08 09:49:42;;;;;;;12.05;7.82;;;;;;;25.22;56.05;97719.94;5019210;28;20041;-68
2023/10/08 09:52:09;;;;;;;13.23;8.43;;;;;;;26.14;53.35;97717.84;5019859;28;20042;-68
2023/10/08 09:54:43;;;;;;;13.68;8.15;;;;;;;25.15;55.67;97720.91;5024061;28;20136;-68
2023/10/08 09:57:10;;;;;;;13.95;7.70;;;;;;;24.81;55.90;97718.56;5006063;28;20064;-68
2023/10/08 09:59:37;;;;;;;15.00;8.88;;;;;;;23.97;58.58;97704.06;5019736;28;20047;-68
2023/10/08 10:02:04;;;;;;;15.30;9.05;;;;;;;23.97;60.17;97709.66;5018369;28;20119;-70
2023/10/08 10:04:31;;;;;;;13.80;8.35;;;;;;;23.26;62.41;97699.41;5013708;28;20044;-67
2023/10/08 10:06:58;;;;;;;16.20;8.30;;;;;;;23.64;62.27;97712.25;5009689;28;20058;-67
2023/10/08 10:09:25;;;;;;;19.52;8.85;;;;;;;23.35;63.12;97704.44;5002414;28;20140;-67
2023/10/08 10:11:55;;;;;;;18.05;8.50;;;;;;;22.88;66.28;97696.84;5015868;28;20132;-67
2023/10/08 10:14:27;;;;;;;11.65;7.95;;;;;;;22.65;69.19;97699.63;5013013;28;20052;-68
2023/10/08 10:17:16;;;;;;;17.30;8.55;;;;;;;22.08;72.02;97704.81;4999689;28;20588;-69
2023/10/08 10:19:45;;;;;;;17.00;8.98;;;;;;;21.02;77.32;97702.78;5017518;28;20069;-69
2023/10/08 10:22:15;;;;;;;17.80;8.65;;;;;;;21.05;78.13;97706.72;5015257;28;20265;-68
2023/10/08 10:24:41;;;;;;;16.98;9.25;;;;;;;21.19;77.12;97707.41;5024415;28;20059;-67
2023/10/08 10:27:14;;;;;;;20.73;10.98;;;;;;;21.35;76.31;97701.25;5016021;28;20034;-67
2023/10/08 10:29:43;;;;;;;18.25;9.90;;;;;;;21.26;76.49;97709.31;5018299;28;20049;-69
2023/10/08 10:32:13;;;;;;;14.38;8.65;;;;;;;21.46;74.20;97711.53;5015778;28;20096;-69
2023/10/08 10:34:39;;;;;;;19.73;9.77;;;;;;;21.58;73.38;97711.78;5020555;28;20038;-68
2023/10/08 10:37:20;;;;;;;17.83;8.88;;;;;;;21.55;74.51;97707.06;5007803;28;20045;-68
2023/10/08 10:40:00;;;;;;;16.88;9.65;;;;;;;21.25;75.84;97707.75;5009221;28;20061;-69
2023/10/08 10:42:28;;;;;;;17.05;10.20;;;;;;;21.27;74.00;97704.53;5012105;28;20057;-69
2023/10/08 10:44:58;;;;;;;18.60;9.65;;;;;;;20.32;79.62;97697.34;5007559;28;20046;-68
2023/10/08 10:47:27;;;;;;;15.13;9.55;;;;;;;20.45;78.50;97701.22;5004054;28;20296;-68
2023/10/08 10:52:32;;;;;;;16.42;9.15;;;;;;;21.18;77.23;97702.25;4999406;28;20034;-69
2023/10/08 10:58:11;;;;;;;18.50;10.07;;;;;;;21.42;73.34;97696.81;5003560;28;20041;-67
2023/10/08 11:03:09;;;;;;;17.27;9.38;;;;;;;21.80;69.70;97708.75;5008999;28;20108;-69
2023/10/08 11:05:37;;;;;;;16.40;8.98;;;;;;;21.89;68.06;97711.81;4991164;28;20500;-69
2023/10/08 11:08:09;;;;;;;14.35;9.10;;;;;;;22.12;67.19;97704.75;4997024;28;20034;-69
2023/10/08 11:10:41;;;;;;;16.55;7.50;;;;;;;22.36;65.87;97702.06;5008159;28;20140;-66
2023/10/08 11:13:14;;;;;;;16.15;7.10;;;;;;;23.40;59.64;97706.72;5011043;28;20146;-67
2023/10/08 11:15:40;;;;;;;16.25;6.80;;;;;;;24.40;53.78;97717.13;4995367;28;20456;-69
2023/10/08 11:18:15;;;;;;;11.38;5.90;;;;;;;24.92;51.33;97716.31;4993546;28;20043;-69
2023/10/08 11:20:44;;;;;;;22.00;12.27;;;;;;;25.93;48.66;97722.88;5022225;28;20388;-67
2023/10/08 11:23:28;;;;;;;15.32;5.93;;;;;;;26.06;48.38;97711.66;5002782;28;20053;-68
2023/10/08 11:26:02;;;;;;;12.27;5.85;;;;;;;27.22;43.88;97722.88;5006103;28;20038;-69
2023/10/08 11:28:48;;;;;;;10.27;5.22;;;;;;;27.70;43.59;97734.91;4997909;28;20081;-69
2023/10/08 11:31:19;;;;;;;12.57;5.78;;;;;;;28.21;40.61;97726.19;4992203;28;20049;-67
2023/10/08 11:33:53;;;;;;;12.02;6.13;;;;;;;28.39;40.40;97730.38;4991519;28;20037;-68
2023/10/08 11:36:25;;;;;;;17.88;5.65;;;;;;;28.77;38.96;97720.84;4996230;28;20041;-67
2023/10/08 11:38:53;;;;;;;13.32;5.63;;;;;;;28.75;39.97;97715.66;5013500;28;20103;-67
2023/10/08 11:41:21;;;;;;;13.38;5.50;;;;;;;28.87;39.39;97708.34;4992346;28;20041;-68
2023/10/08 11:43:58;;;;;;;12.80;5.40;;;;;;;29.02;38.25;97704.94;5005928;28;20189;-69
2023/10/08 11:46:38;;;;;;;13.82;5.40;;;;;;;28.40;39.68;97709.41;5007382;28;20478;-67
2023/10/08 11:49:04;;;;;;;10.32;4.75;;;;;;;28.30;39.09;97699.34;4993981;28;20049;-68
2023/10/08 11:51:32;;;;;;;10.70;4.68;;;;;;;27.99;40.09;97694.47;5008450;28;20035;-66
2023/10/08 11:53:58;;;;;;;10.68;5.95;;;;;;;27.41;39.88;97695.75;4993467;28;20045;-67
2023/10/08 11:56:24;;;;;;;15.77;5.97;;;;;;;26.94;40.69;97693.72;4994469;28;20128;-69
2023/10/08 11:58:51;;;;;;;12.75;5.15;;;;;;;26.59;41.49;97691.59;5000003;28;20121;-67
2023/10/08 12:01:17;;;;;;;14.80;4.80;;;;;;;26.81;41.61;97683.28;4981314;28;20069;-67
2023/10/08 12:03:44;;;;;;;17.10;5.38;;;;;;;27.05;40.79;97685.72;5013262;28;20045;-67
2023/10/08 12:06:15;;;;;;;10.38;4.43;;;;;;;26.87;40.71;97683.50;4991688;28;20034;-68
2023/10/08 12:08:53;;;;;;;13.57;4.85;;;;;;;26.76;43.18;97683.06;5000206;28;20045;-67
2023/10/08 12:11:19;;;;;;;15.45;5.32;;;;;;;25.54;46.03;97670.66;4998677;28;20064;-69
2023/10/08 12:13:45;;;;;;;12.70;5.45;;;;;;;25.01;47.41;97668.03;4997244;28;20400;-68
2023/10/08 12:16:21;;;;;;;13.88;5.28;;;;;;;24.68;47.79;97661.69;4998439;28;20035;-68
2023/10/08 12:18:48;;;;;;;14.10;5.00;;;;;;;24.61;46.18;97660.63;5022150;28;20091;-69
2023/10/08 12:21:15;;;;;;;19.23;5.85;;;;;;;24.45;46.19;97657.78;4994299;28;20374;-68
2023/10/08 12:23:49;;;;;;;11.48;4.72;;;;;;;24.12;47.56;97652.13;5008851;28;20052;-68
2023/10/08 12:26:20;;;;;;;13.65;5.10;;;;;;;23.89;48.62;97646.66;5004061;28;20048;-68
2023/10/08 12:28:48;;;;;;;14.38;5.05;;;;;;;23.97;50.02;97648.09;5001104;28;20037;-69
2023/10/08 12:31:23;;;;;;;14.25;5.22;;;;;;;23.88;49.54;97645.09;4999070;28;20033;-67
2023/10/08 12:33:53;;;;;;;16.42;5.70;;;;;;;23.70;50.28;97645.44;4995677;28;20034;-68
2023/10/08 12:36:26;;;;;;;11.35;5.53;;;;;;;23.78;50.19;97646.88;4997318;28;20034;-66
2023/10/08 12:38:57;;;;;;;17.45;5.78;;;;;;;23.58;49.03;97647.66;5008828;28;20074;-69
2023/10/08 12:41:28;;;;;;;16.42;5.60;;;;;;;23.11;49.85;97641.44;4998470;28;20795;-68
2023/10/08 12:43:54;;;;;;;15.85;5.93;;;;;;;23.04;50.28;97643.13;4992480;28;20050;-67
2023/10/08 12:46:26;;;;;;;18.42;6.07;;;;;;;22.90;51.49;97634.97;4986547;28;20104;-68
2023/10/08 12:48:53;;;;;;;15.40;5.90;;;;;;;22.71;52.09;97642.09;5007984;28;20470;-67
2023/10/08 12:51:24;;;;;;;16.50;5.30;;;;;;;22.57;52.92;97639.53;5012140;28;20052;-66